Time;durP1;ratioP1;P1;durP2;ratioP2;P2;SDS_P1;SDS_P2;PMS_P1;PMS_P2;Temp;Humidity;BMP_temperature;BMP_pressure;BME280_temperature;BME280_humidity;BME280_pressure;Samples;Min_cycle;Max_cycle;Signal;HPM_P1;HPM_P2
2023/03/10 00:01:50;;;;;;;;;;;0.70;99.90;;;;;;6188893;23;19947;-93
2023/03/10 00:04:20;;;;;;;;;;;0.70;99.90;;;;;;6209491;23;19932;-89
2023/03/10 00:06:46;;;;;;;;;;;-1.00;99.90;;;;;;6158582;23;19908;-92
2023/03/10 00:09:12;;;;;;;;;;;3.70;99.90;;;;;;6209426;23;19932;-90
2023/03/10 00:11:38;;;;;;;;;;;3.70;99.90;;;;;;6210396;23;19932;-90
2023/03/10 00:14:08;;;;;;;;;;;4.10;99.90;;;;;;6211182;23;19960;-89
2023/03/10 00:16:37;;;;;;;;;;;3.30;99.90;;;;;;6211274;23;19943;-89
2023/03/10 00:19:10;;;;;;;;;;;2.00;99.90;;;;;;6187090;23;19924;-91
2023/03/10 00:21:38;;;;;;;;;;;-0.70;99.90;;;;;;6162723;23;19924;-91
2023/03/10 00:24:06;;;;;;;;;;;3.10;99.90;;;;;;6162064;23;19908;-92
2023/03/10 00:26:34;;;;;;;;;;;0.40;99.90;;;;;;6185765;23;19936;-88
2023/03/10 00:29:03;;;;;;;;;;;1.40;99.90;;;;;;6184496;23;19927;-89
2023/03/10 00:31:38;;;;;;;;;;;3.30;99.90;;;;;;6159439;23;19974;-89
2023/03/10 00:34:05;;;;;;;;;;;0.30;99.90;;;;;;6181415;23;19951;-89
2023/03/10 00:36:34;;;;;;;;;;;0.50;99.90;;;;;;6158224;23;19920;-89
2023/03/10 00:39:00;;;;;;;;;;;0.10;99.90;;;;;;6158722;23;20267;-89
2023/03/10 00:41:29;;;;;;;;;;;0.50;99.90;;;;;;6183437;23;19920;-88
2023/03/10 00:44:00;;;;;;;;;;;3.80;99.90;;;;;;6158823;23;19995;-88
2023/03/10 00:46:28;;;;;;;;;;;3.50;99.90;;;;;;6159238;23;20354;-89
2023/03/10 00:48:59;;;;;;;;;;;-1.70;99.90;;;;;;6158487;23;19924;-88
2023/03/10 00:51:30;;;;;;;;;;;0.50;99.90;;;;;;6158157;23;19975;-88
2023/03/10 00:54:04;;;;;;;;;;;-0.10;99.90;;;;;;6163416;23;19927;-89
2023/03/10 00:56:30;;;;;;;;;;;2.40;99.90;;;;;;6163598;23;19927;-89
2023/03/10 00:58:57;;;;;;;;;;;2.90;99.90;;;;;;6163712;23;19919;-89
2023/03/10 01:01:29;;;;;;;;;;;3.70;99.90;;;;;;6188104;23;19995;-89
2023/03/10 01:03:59;;;;;;;;;;;2.10;99.90;;;;;;6186443;23;19920;-89
2023/03/10 01:06:44;;;;;;;;;;;1.70;99.90;;;;;;6187869;23;19924;-90
2023/03/10 01:09:10;;;;;;;;;;;0.60;99.90;;;;;;6161546;23;19943;-89
2023/03/10 01:11:41;;;;;;;;;;;1.90;99.90;;;;;;6185488;23;19946;-89
2023/03/10 01:14:15;;;;;;;;;;;-0.40;99.90;;;;;;6160116;23;19924;-89
2023/03/10 01:16:43;;;;;;;;;;;1.90;99.90;;;;;;6163794;23;19943;-89
2023/03/10 01:19:14;;;;;;;;;;;1.80;99.90;;;;;;6163641;23;19995;-89
2023/03/10 01:21:42;;;;;;;;;;;3.10;99.90;;;;;;6162525;23;19930;-89
2023/03/10 01:24:19;;;;;;;;;;;0.40;99.90;;;;;;6164331;23;20337;-90
2023/03/10 01:26:47;;;;;;;;;;;1.50;99.90;;;;;;6189835;23;19931;-91
2023/03/10 01:29:33;;;;;;;;;;;4.00;99.90;;;;;;6166233;23;20187;-90
2023/03/10 01:32:04;;;;;;;;;;;-0.90;99.90;;;;;;6144901;23;20249;-89
2023/03/10 01:34:30;;;;;;;;;;;-2.90;99.90;;;;;;6190759;23;19960;-90
2023/03/10 01:37:08;;;;;;;;;;;0.70;99.90;;;;;;6190127;23;19947;-89
2023/03/10 01:39:36;;;;;;;;;;;0.50;99.90;;;;;;6191275;23;19924;-89
2023/03/10 01:42:26;;;;;;;;;;;2.10;99.90;;;;;;6190687;23;19926;-90
2023/03/10 01:45:09;;;;;;;;;;;-0.10;99.90;;;;;;6190337;23;19982;-90
2023/03/10 01:47:57;;;;;;;;;;;-0.90;99.90;;;;;;6165747;23;19926;-91
2023/03/10 01:50:28;;;;;;;;;;;1.80;99.90;;;;;;6164849;23;20002;-91
2023/03/10 01:53:05;;;;;;;;;;;1.50;99.90;;;;;;6138557;23;20341;-91
2023/03/10 01:55:46;;;;;;;;;;;0.80;99.90;;;;;;6160619;23;19955;-90
2023/03/10 01:58:40;;;;;;;;;;;1.70;99.90;;;;;;6160827;23;19924;-92
2023/03/10 02:01:13;;;;;;;;;;;0.60;99.90;;;;;;6161984;23;19924;-91
2023/03/10 02:04:06;;;;;;;;;;;-0.20;99.90;;;;;;6162546;23;19924;-92
2023/03/10 02:06:34;;;;;;;;;;;2.30;99.90;;;;;;6185390;23;19951;-90
2023/03/10 02:09:15;;;;;;;;;;;1.30;99.90;;;;;;6160772;23;19920;-92
2023/03/10 02:11:52;;;;;;;;;;;2.10;99.90;;;;;;6137649;23;19995;-91
2023/03/10 02:14:35;;;;;;;;;;;-1.00;99.90;;;;;;6185770;23;19927;-91
2023/03/10 02:17:16;;;;;;;;;;;2.10;99.90;;;;;;6160844;23;19921;-92
2023/03/10 02:20:03;;;;;;;;;;;;;;;;;;;;;
2023/03/10 02:22:41;;;;;;;;;;;0.90;99.90;;;;;;6184852;23;19956;-91
2023/03/10 02:25:09;;;;;;;;;;;4.30;99.90;;;;;;6160760;23;20373;-91
2023/03/10 02:27:48;;;;;;;;;;;-0.20;99.90;;;;;;6160786;23;19947;-92
2023/03/10 02:30:26;;;;;;;;;;;1.90;99.90;;;;;;6186358;23;19989;-91
2023/03/10 02:32:54;;;;;;;;;;;0.80;99.90;;;;;;6187476;23;19943;-91
2023/03/10 02:35:22;;;;;;;;;;;1.30;99.90;;;;;;6167890;23;19924;-91
2023/03/10 02:37:58;;;;;;;;;;;2.30;99.90;;;;;;6188703;23;19974;-91
2023/03/10 02:40:46;;;;;;;;;;;4.20;99.90;;;;;;6160888;23;19932;-91
2023/03/10 02:43:12;;;;;;;;;;;3.30;99.90;;;;;;6149273;23;19920;-90
2023/03/10 02:45:42;;;;;;;;;;;4.10;99.90;;;;;;6160508;23;19920;-94
2023/03/10 02:48:08;;;;;;;;;;;1.40;99.90;;;;;;6160385;23;19920;-92
2023/03/10 02:50:47;;;;;;;;;;;1.30;99.90;;;;;;6160626;23;20331;-91
2023/03/10 02:53:28;;;;;;;;;;;-1.40;99.90;;;;;;6153449;23;19952;-92
2023/03/10 02:56:00;;;;;;;;;;;1.70;99.90;;;;;;6185153;23;20415;-91
2023/03/10 02:58:29;;;;;;;;;;;-2.20;99.90;;;;;;6160019;23;19920;-91
2023/03/10 03:00:55;;;;;;;;;;;1.70;99.90;;;;;;6160259;23;19999;-92
2023/03/10 03:03:25;;;;;;;;;;;1.10;99.90;;;;;;6185316;23;19956;-91
2023/03/10 03:06:04;;;;;;;;;;;1.80;99.90;;;;;;6160718;23;20243;-93
2023/03/10 03:08:32;;;;;;;;;;;0.10;99.90;;;;;;6160969;23;19920;-92
2023/03/10 03:10:57;;;;;;;;;;;1.10;99.90;;;;;;6161086;23;19920;-92
2023/03/10 03:13:47;;;;;;;;;;;0.80;99.90;;;;;;6160872;23;19920;-92
2023/03/10 03:16:24;;;;;;;;;;;;;;;;;;;;;
2023/03/10 03:18:58;;;;;;;;;;;2.00;99.90;;;;;;6185783;23;19943;-93
2023/03/10 03:21:32;;;;;;;;;;;2.70;99.90;;;;;;6158743;23;19921;-92
2023/03/10 03:24:03;;;;;;;;;;;2.00;99.90;;;;;;6160762;23;19924;-93
2023/03/10 03:26:35;;;;;;;;;;;1.50;99.90;;;;;;6160225;23;20271;-92
2023/03/10 03:29:13;;;;;;;;;;;1.00;99.90;;;;;;6160699;23;19920;-92
2023/03/10 03:31:41;;;;;;;;;;;1.70;99.90;;;;;;6160410;23;20331;-93
2023/03/10 03:34:14;;;;;;;;;;;2.30;99.90;;;;;;6135598;23;20002;-92
2023/03/10 03:36:58;;;;;;;;;;;3.20;99.90;;;;;;6184673;23;19947;-92
2023/03/10 03:39:32;;;;;;;;;;;2.10;99.90;;;;;;6141395;23;19971;-92
2023/03/10 03:44:59;;;;;;;;;;;0.70;99.90;;;;;;6166820;23;19920;-93
2023/03/10 03:47:30;;;;;;;;;;;2.90;99.90;;;;;;6160933;23;19921;-92
2023/03/10 03:50:01;;;;;;;;;;;1.90;99.90;;;;;;6184667;23;19924;-92
2023/03/10 03:55:35;;;;;;;;;;;1.10;99.90;;;;;;6185572;23;19921;-93
2023/03/10 03:58:05;;;;;;;;;;;-1.60;99.90;;;;;;6136035;23;20039;-92
2023/03/10 04:00:38;;;;;;;;;;;0.90;99.90;;;;;;6185392;23;19926;-92
2023/03/10 04:03:22;;;;;;;;;;;1.00;99.90;;;;;;6159929;23;19924;-92
2023/03/10 04:05:59;;;;;;;;;;;1.60;99.90;;;;;;6160508;23;19995;-91
2023/03/10 04:08:45;;;;;;;;;;;-1.10;99.90;;;;;;6184540;23;19920;-94
2023/03/10 04:11:14;;;;;;;;;;;2.40;99.90;;;;;;6159222;23;19920;-93
2023/03/10 04:13:50;;;;;;;;;;;;;;;;;;;;;
2023/03/10 04:16:20;;;;;;;;;;;3.50;99.90;;;;;;6185078;23;19997;-92
2023/03/10 04:18:51;;;;;;;;;;;1.20;99.90;;;;;;6160518;23;19970;-93
2023/03/10 04:21:20;;;;;;;;;;;2.60;99.90;;;;;;6183552;23;19952;-92
2023/03/10 04:23:54;;;;;;;;;;;2.00;99.90;;;;;;6161026;23;19920;-92
2023/03/10 04:26:22;;;;;;;;;;;-0.40;99.90;;;;;;6135459;23;19979;-92
2023/03/10 04:28:55;;;;;;;;;;;1.20;99.90;;;;;;6135116;23;19920;-92
2023/03/10 04:31:21;;;;;;;;;;;1.70;99.90;;;;;;6160112;23;19990;-92
2023/03/10 04:33:49;;;;;;;;;;;3.90;99.90;;;;;;6185243;23;19927;-93
2023/03/10 04:39:10;;;;;;;;;;;-0.50;99.90;;;;;;6184973;23;19924;-92
2023/03/10 04:41:55;;;;;;;;;;;;;;;;;;;;;
2023/03/10 04:44:24;;;;;;;;;;;0.80;99.90;;;;;;6184995;23;19920;-94
2023/03/10 04:49:45;;;;;;;;;;;0.70;99.90;;;;;;6199401;23;19919;-92
2023/03/10 04:52:23;;;;;;;;;;;1.70;99.90;;;;;;6186398;23;19934;-93
2023/03/10 04:55:01;;;;;;;;;;;;;;;;;;;;;
2023/03/10 04:57:38;;;;;;;;;;;3.80;99.90;;;;;;6210334;23;19931;-93
2023/03/10 05:00:27;;;;;;;;;;;2.70;99.90;;;;;;6186239;23;19916;-93
2023/03/10 05:02:58;;;;;;;;;;;1.40;99.90;;;;;;6187438;23;19909;-92
2023/03/10 05:05:45;;;;;;;;;;;1.50;99.90;;;;;;6186558;23;19919;-94
2023/03/10 05:08:37;;;;;;;;;;;2.40;99.90;;;;;;6211980;23;19908;-92
2023/03/10 05:11:34;;;;;;;;;;;;;;;;;;;;;
2023/03/10 05:14:11;;;;;;;;;;;-2.30;99.90;;;;;;6212174;23;19931;-92
2023/03/10 05:16:54;;;;;;;;;;;0.60;99.90;;;;;;6151504;23;19921;-91
2023/03/10 05:19:35;;;;;;;;;;;1.20;99.90;;;;;;6148029;23;20342;-92
2023/03/10 05:22:03;;;;;;;;;;;1.20;99.90;;;;;;6143495;23;19920;-90
2023/03/10 05:24:41;;;;;;;;;;;3.30;99.90;;;;;;6161697;23;19938;-91
2023/03/10 05:27:20;;;;;;;;;;;-1.70;99.90;;;;;;6160979;23;19971;-92
2023/03/10 05:29:48;;;;;;;;;;;2.70;99.90;;;;;;6136366;23;19920;-92
2023/03/10 05:32:37;;;;;;;;;;;-1.80;99.90;;;;;;6184283;23;19924;-93
2023/03/10 05:35:19;;;;;;;;;;;0.80;99.90;;;;;;6183817;23;19927;-93
2023/03/10 05:37:45;;;;;;;;;;;0.70;99.90;;;;;;6186834;23;19927;-92
2023/03/10 05:40:21;;;;;;;;;;;0.70;99.90;;;;;;6160977;23;19971;-93
2023/03/10 05:42:56;;;;;;;;;;;-0.40;99.90;;;;;;6160844;23;19995;-94
2023/03/10 05:45:24;;;;;;;;;;;0.30;99.90;;;;;;6162044;23;19927;-93
2023/03/10 05:48:02;;;;;;;;;;;0.30;99.90;;;;;;6160834;23;19927;-94
2023/03/10 05:50:50;;;;;;;;;;;-1.30;99.90;;;;;;6161553;23;20242;-94
2023/03/10 05:56:50;;;;;;;;;;;;;;;;;;;;;
2023/03/10 05:59:19;;;;;;;;;;;-1.80;99.90;;;;;;6172367;23;19928;-93
2023/03/10 06:08:28;;;;;;;;;;;2.20;99.90;;;;;;6155786;23;19928;-95
2023/03/10 06:18:05;;;;;;;;;;;1.20;99.90;;;;;;6200484;23;19944;-94
2023/03/10 06:21:08;;;;;;;;;;;;;;;;;;;;;
2023/03/10 06:26:51;;;;;;;;;;;-2.30;99.90;;;;;;6140481;23;19932;-92
2023/03/10 06:29:17;;;;;;;;;;;0.20;99.90;;;;;;6089817;23;19920;-91
2023/03/10 06:31:42;;;;;;;;;;;0.20;99.90;;;;;;6089501;23;19948;-92
2023/03/10 06:34:08;;;;;;;;;;;0.10;99.90;;;;;;6114458;23;19928;-93
2023/03/10 06:36:36;;;;;;;;;;;0.30;99.90;;;;;;6111587;23;19928;-94
2023/03/10 06:39:02;;;;;;;;;;;0.20;99.90;;;;;;6115783;23;19968;-94
2023/03/10 06:41:27;;;;;;;;;;;0.10;99.90;;;;;;6113868;23;19944;-95
2023/03/10 06:43:59;;;;;;;;;;;2.50;99.90;;;;;;6116984;23;19981;-94
2023/03/10 06:46:27;;;;;;;;;;;1.50;99.90;;;;;;6115256;23;19921;-93
2023/03/10 06:48:56;;;;;;;;;;;0.20;99.90;;;;;;6115651;23;19921;-96
2023/03/10 06:51:24;;;;;;;;;;;-0.50;99.90;;;;;;6137677;23;19937;-94
2023/03/10 06:53:50;;;;;;;;;;;1.30;99.90;;;;;;6087306;23;19916;-94
2023/03/10 06:56:20;;;;;;;;;;;0.60;99.90;;;;;;6115182;23;19932;-94
2023/03/10 06:58:46;;;;;;;;;;;0.10;99.90;;;;;;6126742;23;19924;-92
2023/03/10 07:01:23;;;;;;;;;;;0.20;99.90;;;;;;6127860;23;19917;-95
2023/03/10 07:03:48;;;;;;;;;;;0.40;99.90;;;;;;6146091;23;20356;-92
2023/03/10 07:06:14;;;;;;;;;;;1.80;99.90;;;;;;6137765;23;19948;-93
2023/03/10 07:08:40;;;;;;;;;;;1.60;99.90;;;;;;6112386;23;19944;-92
2023/03/10 07:11:05;;;;;;;;;;;0.30;99.90;;;;;;6112105;23;19969;-93
2023/03/10 07:13:31;;;;;;;;;;;2.00;99.90;;;;;;6112238;23;19932;-94
2023/03/10 07:15:56;;;;;;;;;;;0.20;99.90;;;;;;6135400;23;19949;-92
2023/03/10 07:18:26;;;;;;;;;;;1.30;99.90;;;;;;6112362;23;19959;-92
2023/03/10 07:20:53;;;;;;;;;;;0.30;99.90;;;;;;6111058;23;19932;-92
2023/03/10 07:23:18;;;;;;;;;;;0.20;99.90;;;;;;6111971;23;19921;-92
2023/03/10 07:25:44;;;;;;;;;;;2.60;99.90;;;;;;6116198;23;19931;-92
2023/03/10 07:28:10;;;;;;;;;;;0.30;99.90;;;;;;6116817;23;19920;-91
2023/03/10 07:30:36;;;;;;;;;;;0.40;99.90;;;;;;6093240;23;19983;-93
2023/03/10 07:33:02;;;;;;;;;;;2.30;99.90;;;;;;6115906;23;19917;-93
2023/03/10 07:35:28;;;;;;;;;;;1.30;99.90;;;;;;6117340;23;19920;-93
2023/03/10 07:37:53;;;;;;;;;;;0.50;99.90;;;;;;6138986;23;19925;-93
2023/03/10 07:40:23;;;;;;;;;;;0.50;99.90;;;;;;6141982;23;19931;-91
2023/03/10 07:42:55;;;;;;;;;;;0.40;99.90;;;;;;6092660;23;20013;-93
2023/03/10 07:45:38;;;;;;;;;;;0.50;99.90;;;;;;6118601;23;19944;-92
2023/03/10 07:48:04;;;;;;;;;;;0.70;99.90;;;;;;6116805;23;19924;-92
2023/03/10 07:50:29;;;;;;;;;;;0.60;99.90;;;;;;6116009;23;19952;-92
2023/03/10 07:52:55;;;;;;;;;;;0.90;99.90;;;;;;6115736;23;19920;-93
2023/03/10 07:55:21;;;;;;;;;;;0.80;99.90;;;;;;6092590;23;19921;-92
2023/03/10 07:57:47;;;;;;;;;;;-2.00;99.90;;;;;;6116515;23;19920;-93
2023/03/10 08:00:14;;;;;;;;;;;0.80;99.90;;;;;;6092868;23;19920;-93
2023/03/10 08:02:40;;;;;;;;;;;0.40;99.90;;;;;;6116776;23;19921;-94
2023/03/10 08:05:06;;;;;;;;;;;2.10;99.90;;;;;;6117697;23;19935;-93
2023/03/10 08:07:36;;;;;;;;;;;0.50;99.90;;;;;;6090804;23;19968;-92
2023/03/10 08:10:02;;;;;;;;;;;-0.40;99.90;;;;;;6092836;23;19984;-94
2023/03/10 08:12:27;;;;;;;;;;;0.80;99.90;;;;;;6141349;23;19920;-94
2023/03/10 08:14:53;;;;;;;;;;;0.60;99.90;;;;;;6094289;23;19921;-96
2023/03/10 08:17:19;;;;;;;;;;;0.60;99.90;;;;;;6117755;23;19920;-96
2023/03/10 08:19:46;;;;;;;;;;;0.60;99.90;;;;;;6120305;23;19948;-96
2023/03/10 08:22:18;;;;;;;;;;;0.70;99.90;;;;;;6120832;23;19928;-96
2023/03/10 08:24:58;;;;;;;;;;;2.40;99.90;;;;;;6127843;22;19944;-94
2023/03/10 08:27:56;;;;;;;;;;;0.70;99.90;;;;;;6151189;23;19921;-91
2023/03/10 08:30:35;;;;;;;;;;;1.10;99.90;;;;;;6153936;23;19926;-90
2023/03/10 08:33:09;;;;;;;;;;;0.90;99.90;;;;;;6153046;23;19921;-90
2023/03/10 08:35:45;;;;;;;;;;;1.70;99.90;;;;;;6154088;23;19920;-89
2023/03/10 08:38:13;;;;;;;;;;;-1.30;99.90;;;;;;6152315;23;20324;-92
2023/03/10 08:40:41;;;;;;;;;;;0.70;99.90;;;;;;6153906;23;19920;-89
2023/03/10 08:43:26;;;;;;;;;;;3.00;99.90;;;;;;6153922;23;19921;-89
2023/03/10 08:46:31;;;;;;;;;;;;;;;;;;;;;
2023/03/10 08:52:29;;;;;;;;;;;3.80;99.90;;;;;;6151715;23;19952;-90
2023/03/10 08:58:12;;;;;;;;;;;1.30;99.90;;;;;;6103477;23;19963;-94
2023/03/10 09:04:07;;;;;;;;;;;1.80;99.90;;;;;;6152554;23;19926;-92
2023/03/10 09:06:41;;;;;;;;;;;1.20;99.90;;;;;;6152268;23;20251;-93
2023/03/10 09:09:22;;;;;;;;;;;;;;;;;;;;;
2023/03/10 09:12:11;;;;;;;;;;;3.10;99.90;;;;;;6155125;23;19948;-90
2023/03/10 09:15:04;;;;;;;;;;;1.90;99.90;;;;;;6154441;23;20305;-93
2023/03/10 09:17:48;;;;;;;;;;;;;;;;;;;;;
2023/03/10 09:20:35;;;;;;;;;;;;;;;;;;;;;
2023/03/10 09:23:33;;;;;;;;;;;;;;;;;;;;;
2023/03/10 09:26:22;;;;;;;;;;;-0.60;99.90;;;;;;6178915;23;19919;-91
2023/03/10 09:29:12;;;;;;;;;;;;;;;;;;;;;
2023/03/10 09:32:10;;;;;;;;;;;1.00;99.90;;;;;;6181351;23;19927;-92
2023/03/10 09:35:08;;;;;;;;;;;-0.80;99.90;;;;;;6181906;23;19916;-93
2023/03/10 09:37:44;;;;;;;;;;;1.10;99.90;;;;;;6161849;23;19924;-91
2023/03/10 09:40:45;;;;;;;;;;;;;;;;;;;;;
2023/03/10 09:43:50;;;;;;;;;;;;;;;;;;;;;
2023/03/10 09:46:51;;;;;;;;;;;3.30;99.90;;;;;;6155495;23;19920;-94
2023/03/10 09:49:36;;;;;;;;;;;-1.10;99.90;;;;;;6156669;23;20035;-90
2023/03/10 09:52:21;;;;;;;;;;;1.60;99.90;;;;;;6131977;23;19920;-91
2023/03/10 09:57:57;;;;;;;;;;;1.00;99.90;;;;;;6147710;23;19971;-92
2023/03/10 10:00:35;;;;;;;;;;;1.00;99.90;;;;;;6154802;23;19920;-92
2023/03/10 10:03:35;;;;;;;;;;;1.80;99.90;;;;;;6131240;23;19920;-90
2023/03/10 10:06:27;;;;;;;;;;;;;;;;;;;;;
2023/03/10 10:09:09;;;;;;;;;;;;;;;;;;;;;
2023/03/10 10:11:38;;;;;;;;;;;-0.40;99.90;;;;;;6157481;23;20362;-91
2023/03/10 10:14:33;;;;;;;;;;;2.30;99.90;;;;;;6156550;23;19908;-91
2023/03/10 10:17:28;;;;;;;;;;;;;;;;;;;;;
2023/03/10 10:22:52;;;;;;;;;;;-1.80;99.90;;;;;;6133465;23;19991;-91
2023/03/10 10:25:53;;;;;;;;;;;;;;;;;;;;;
2023/03/10 10:28:34;;;;;;;;;;;;;;;;;;;;;
2023/03/10 10:31:43;;;;;;;;;;;;;;;;;;;;;
2023/03/10 10:37:42;;;;;;;;;;;1.10;99.90;;;;;;6154389;23;20485;-92
2023/03/10 10:40:29;;;;;;;;;;;1.10;99.90;;;;;;6152672;23;19929;-91
2023/03/10 10:43:18;;;;;;;;;;;1.90;99.90;;;;;;6154495;23;19987;-95
2023/03/10 10:45:53;;;;;;;;;;;0.20;99.90;;;;;;6152361;23;20373;-95
2023/03/10 10:48:44;;;;;;;;;;;1.00;99.90;;;;;;6155076;23;20402;-93
2023/03/10 10:51:51;;;;;;;;;;;0.80;99.90;;;;;;6154151;23;19995;-93
2023/03/10 10:54:59;;;;;;;;;;;;;;;;;;;;;
2023/03/10 10:57:52;;;;;;;;;;;2.00;99.90;;;;;;6154945;23;19976;-91
2023/03/10 11:00:48;;;;;;;;;;;-0.10;99.90;;;;;;6155586;23;19924;-91
2023/03/10 11:03:31;;;;;;;;;;;1.90;99.90;;;;;;6157130;23;19925;-92
2023/03/10 11:05:59;;;;;;;;;;;1.30;99.90;;;;;;6129739;23;19931;-91
2023/03/10 11:08:30;;;;;;;;;;;1.60;99.90;;;;;;6154583;23;19975;-92
2023/03/10 11:11:18;;;;;;;;;;;1.40;99.90;;;;;;6156304;23;19955;-94
2023/03/10 11:13:56;;;;;;;;;;;0.90;99.90;;;;;;6130863;23;19973;-89
2023/03/10 11:16:37;;;;;;;;;;;1.00;99.90;;;;;;6129886;23;19995;-93
2023/03/10 11:19:26;;;;;;;;;;;1.30;99.90;;;;;;6128659;23;19921;-92
2023/03/10 11:21:59;;;;;;;;;;;-0.60;99.90;;;;;;6136813;23;19996;-90
2023/03/10 11:24:47;;;;;;;;;;;2.40;99.90;;;;;;6178964;23;19921;-89
2023/03/10 11:27:47;;;;;;;;;;;1.80;99.90;;;;;;6151448;23;19921;-91
2023/03/10 11:30:17;;;;;;;;;;;1.30;99.90;;;;;;6154206;23;19920;-91
2023/03/10 11:32:54;;;;;;;;;;;1.40;99.90;;;;;;6129443;23;19920;-90
2023/03/10 11:35:34;;;;;;;;;;;0.90;99.90;;;;;;6129546;23;19943;-91
2023/03/10 11:41:16;;;;;;;;;;;2.50;99.90;;;;;;6145599;23;19920;-91
2023/03/10 11:43:52;;;;;;;;;;;-0.90;99.90;;;;;;6154610;23;19967;-91
2023/03/10 11:46:26;;;;;;;;;;;1.10;99.90;;;;;;6154191;23;19956;-90
2023/03/10 11:48:58;;;;;;;;;;;-0.10;99.90;;;;;;6129059;23;19971;-90
2023/03/10 11:51:44;;;;;;;;;;;4.40;99.90;;;;;;6176612;23;20027;-90
2023/03/10 11:54:44;;;;;;;;;;;2.70;99.90;;;;;;6152600;23;19971;-90
2023/03/10 11:57:20;;;;;;;;;;;-0.20;99.90;;;;;;6151845;23;19966;-91
2023/03/10 12:00:21;;;;;;;;;;;0.90;99.90;;;;;;6153883;23;19924;-93
2023/03/10 12:03:02;;;;;;;;;;;-0.70;99.90;;;;;;6159011;23;19925;-91
2023/03/10 12:05:34;;;;;;;;;;;-0.80;99.90;;;;;;6154229;23;19920;-91
2023/03/10 12:08:22;;;;;;;;;;;2.10;99.90;;;;;;6152892;23;19924;-93
2023/03/10 12:14:27;;;;;;;;;;;0.80;99.90;;;;;;6144844;23;19928;-93
2023/03/10 12:17:39;;;;;;;;;;;-1.70;99.90;;;;;;6153881;23;19991;-92
2023/03/10 12:23:25;;;;;;;;;;;1.50;99.90;;;;;;6147046;23;19921;-94
2023/03/10 12:29:23;;;;;;;;;;;4.30;99.90;;;;;;6154457;23;19921;-94
2023/03/10 12:31:59;;;;;;;;;;;3.70;99.90;;;;;;6131760;23;19920;-91
2023/03/10 12:34:31;;;;;;;;;;;1.30;99.90;;;;;;6155946;23;20036;-92
2023/03/10 12:37:23;;;;;;;;;;;1.80;99.90;;;;;;6153774;23;19921;-92
2023/03/10 12:42:58;;;;;;;;;;;1.90;99.90;;;;;;6153801;23;19946;-91
2023/03/10 12:45:48;;;;;;;;;;;1.10;99.90;;;;;;6132687;23;19924;-96
2023/03/10 12:48:18;;;;;;;;;;;3.00;99.90;;;;;;6155361;23;19947;-91
2023/03/10 12:51:04;;;;;;;;;;;1.50;99.90;;;;;;6153383;23;19928;-90
2023/03/10 12:53:44;;;;;;;;;;;1.80;99.90;;;;;;6153799;23;19963;-93
2023/03/10 12:56:12;;;;;;;;;;;1.50;99.90;;;;;;6129293;23;19944;-93
2023/03/10 12:58:59;;;;;;;;;;;;;;;;;;;;;
2023/03/10 13:01:44;;;;;;;;;;;;;;;;;;;;;
2023/03/10 13:04:20;;;;;;;;;;;1.60;99.90;;;;;;6155592;23;19921;-94
2023/03/10 13:06:56;;;;;;;;;;;1.80;99.90;;;;;;6156778;23;19928;-92
2023/03/10 13:09:56;;;;;;;;;;;0.70;99.90;;;;;;6154112;23;19984;-92
2023/03/10 13:12:33;;;;;;;;;;;1.20;99.90;;;;;;6138425;23;19924;-91
2023/03/10 13:15:39;;;;;;;;;;;1.30;99.90;;;;;;6153967;23;19928;-93
2023/03/10 13:18:40;;;;;;;;;;;;;;;;;;;;;
2023/03/10 13:21:49;;;;;;;;;;;5.10;99.90;;;;;;6147099;23;19931;-94
2023/03/10 13:24:36;;;;;;;;;;;0.80;99.90;;;;;;6149310;23;19960;-93
2023/03/10 13:27:25;;;;;;;;;;;;;;;;;;;;;
2023/03/10 13:30:04;;;;;;;;;;;2.10;99.90;;;;;;6155506;23;19920;-90
2023/03/10 13:33:00;;;;;;;;;;;;;;;;;;;;;
2023/03/10 13:35:28;;;;;;;;;;;1.70;99.90;;;;;;6164164;23;19935;-93
2023/03/10 13:43:32;;;;;;;;;;;1.10;99.90;;;;;;6160667;23;20483;-87
2023/03/10 13:45:58;;;;;;;;;;;1.20;99.90;;;;;;6153536;23;19968;-87
2023/03/10 13:48:27;;;;;;;;;;;-0.10;99.90;;;;;;6157486;23;19921;-88
2023/03/10 13:51:12;;;;;;;;;;;4.00;99.90;;;;;;6158633;23;20338;-89
2023/03/10 13:53:40;;;;;;;;;;;1.40;99.90;;;;;;6157179;23;19928;-88
2023/03/10 13:56:21;;;;;;;;;;;-0.50;99.90;;;;;;6158379;23;19927;-90
2023/03/10 13:58:47;;;;;;;;;;;2.10;99.90;;;;;;6158539;23;19927;-89
2023/03/10 14:01:36;;;;;;;;;;;2.30;99.90;;;;;;6183083;23;19939;-88
2023/03/10 14:04:07;;;;;;;;;;;-1.10;99.90;;;;;;6158517;23;19928;-89
2023/03/10 14:06:37;;;;;;;;;;;-1.00;99.90;;;;;;6159105;23;20225;-91
2023/03/10 14:09:16;;;;;;;;;;;4.60;99.90;;;;;;6161332;23;20035;-89
2023/03/10 14:11:43;;;;;;;;;;;1.40;99.90;;;;;;6188634;23;19927;-87
2023/03/10 14:14:13;;;;;;;;;;;2.10;99.90;;;;;;6160414;23;19983;-88
2023/03/10 14:17:04;;;;;;;;;;;;;;;;;;;;;
2023/03/10 14:23:01;;;;;;;;;;;2.60;99.90;;;;;;6183361;23;19926;-90
2023/03/10 14:25:27;;;;;;;;;;;0.60;99.90;;;;;;6189998;23;19931;-88
2023/03/10 14:28:12;;;;;;;;;;;2.80;99.90;;;;;;6189162;23;20303;-87
2023/03/10 14:30:40;;;;;;;;;;;1.40;99.90;;;;;;6183104;23;19920;-87
2023/03/10 14:33:10;;;;;;;;;;;2.20;99.90;;;;;;6182578;23;19995;-89
2023/03/10 14:35:38;;;;;;;;;;;1.80;99.90;;;;;;6158347;23;19924;-88
2023/03/10 14:38:07;;;;;;;;;;;3.30;99.90;;;;;;6156039;23;19927;-88
2023/03/10 14:40:38;;;;;;;;;;;5.20;99.90;;;;;;6182806;23;19939;-89
2023/03/10 14:43:44;;;;;;;;;;;1.70;99.90;;;;;;6159183;23;19982;-89
2023/03/10 14:46:13;;;;;;;;;;;0.40;99.90;;;;;;6168633;23;19952;-87
2023/03/10 14:48:40;;;;;;;;;;;3.70;99.90;;;;;;6157279;23;20361;-87
2023/03/10 14:51:11;;;;;;;;;;;-0.30;99.90;;;;;;6158190;23;20295;-88
2023/03/10 14:53:39;;;;;;;;;;;2.50;99.90;;;;;;6181756;23;19920;-89
2023/03/10 14:56:08;;;;;;;;;;;1.70;99.90;;;;;;6158232;23;19956;-87
2023/03/10 14:58:49;;;;;;;;;;;1.20;99.90;;;;;;6157649;23;19959;-89
2023/03/10 15:01:15;;;;;;;;;;;3.00;99.90;;;;;;6157880;23;19921;-89
2023/03/10 15:03:43;;;;;;;;;;;-0.80;99.90;;;;;;6157581;23;19924;-88
2023/03/10 15:06:11;;;;;;;;;;;3.70;99.90;;;;;;6157321;23;20346;-89
2023/03/10 15:08:47;;;;;;;;;;;1.70;99.90;;;;;;6156029;23;19924;-90
2023/03/10 15:11:16;;;;;;;;;;;4.30;99.90;;;;;;6157553;23;19921;-88
2023/03/10 15:13:51;;;;;;;;;;;;;;;;;;;;;
2023/03/10 15:16:17;;;;;;;;;;;1.10;99.90;;;;;;6182701;23;19947;-87
2023/03/10 15:18:47;;;;;;;;;;;-1.10;99.90;;;;;;6182559;23;20334;-89
2023/03/10 15:21:18;;;;;;;;;;;-0.70;99.90;;;;;;6158119;23;20279;-88
2023/03/10 15:23:44;;;;;;;;;;;3.30;99.90;;;;;;6156688;23;19983;-85
2023/03/10 15:26:11;;;;;;;;;;;4.60;99.90;;;;;;6158245;23;19928;-88
2023/03/10 15:28:37;;;;;;;;;;;2.40;99.90;;;;;;6182594;23;20010;-87
2023/03/10 15:31:08;;;;;;;;;;;2.30;99.90;;;;;;6157972;23;19920;-90
2023/03/10 15:33:33;;;;;;;;;;;0.90;99.90;;;;;;6182694;23;19979;-88
2023/03/10 15:36:02;;;;;;;;;;;4.40;99.90;;;;;;6158134;23;19928;-88
2023/03/10 15:38:30;;;;;;;;;;;-0.70;99.90;;;;;;6180721;23;19967;-87
2023/03/10 15:40:56;;;;;;;;;;;1.40;99.90;;;;;;6182762;23;20019;-87
2023/03/10 15:43:30;;;;;;;;;;;4.20;99.90;;;;;;6157677;23;19975;-89
2023/03/10 15:45:58;;;;;;;;;;;0.70;99.90;;;;;;6182796;23;19920;-88
2023/03/10 15:48:34;;;;;;;;;;;;;;;;;;;;;
2023/03/10 15:51:03;;;;;;;;;;;2.20;99.90;;;;;;6183082;23;19927;-88
2023/03/10 15:53:28;;;;;;;;;;;3.90;99.90;;;;;;6157494;23;19924;-89
2023/03/10 15:55:55;;;;;;;;;;;1.40;99.90;;;;;;6158766;23;19939;-87
2023/03/10 15:58:23;;;;;;;;;;;3.00;99.90;;;;;;6158237;23;20003;-87
2023/03/10 16:00:51;;;;;;;;;;;-0.90;99.90;;;;;;6158541;23;19920;-88
2023/03/10 16:04:04;;;;;;;;;;;1.10;99.90;;;;;;6158717;23;19924;-87
2023/03/10 16:06:31;;;;;;;;;;;1.10;99.90;;;;;;6182240;23;20838;-87
2023/03/10 16:09:05;;;;;;;;;;;3.80;99.90;;;;;;6159353;23;20393;-89
2023/03/10 16:11:31;;;;;;;;;;;2.60;99.90;;;;;;6183474;23;19952;-87
2023/03/10 16:13:56;;;;;;;;;;;0.80;99.90;;;;;;6183280;23;19990;-87
2023/03/10 16:16:22;;;;;;;;;;;0.70;99.90;;;;;;6158409;23;19920;-87
2023/03/10 16:18:48;;;;;;;;;;;-0.10;99.90;;;;;;6183021;23;19924;-87
2023/03/10 16:21:14;;;;;;;;;;;0.40;99.90;;;;;;6157830;23;19978;-86
2023/03/10 16:23:40;;;;;;;;;;;1.30;99.90;;;;;;6181657;23;19924;-87
2023/03/10 16:26:07;;;;;;;;;;;2.90;99.90;;;;;;6158367;23;19920;-87
2023/03/10 16:28:34;;;;;;;;;;;1.00;99.90;;;;;;6158912;23;20226;-86
2023/03/10 16:31:01;;;;;;;;;;;0.60;99.90;;;;;;6158382;23;19920;-86
2023/03/10 16:33:29;;;;;;;;;;;0.30;99.90;;;;;;6183927;23;19982;-87
2023/03/10 16:35:59;;;;;;;;;;;-1.90;99.90;;;;;;6184089;23;19962;-87
2023/03/10 16:38:25;;;;;;;;;;;0.90;99.90;;;;;;6156709;23;19927;-86
2023/03/10 16:40:58;;;;;;;;;;;3.30;99.90;;;;;;6183350;23;19936;-88
2023/03/10 16:43:28;;;;;;;;;;;0.70;99.90;;;;;;6157708;23;19924;-88
2023/03/10 16:46:05;;;;;;;;;;;0.20;99.90;;;;;;6158383;23;20322;-88
2023/03/10 16:48:31;;;;;;;;;;;2.90;99.90;;;;;;6158010;23;19931;-87
2023/03/10 16:50:57;;;;;;;;;;;0.80;99.90;;;;;;6158785;23;19924;-87
2023/03/10 16:53:23;;;;;;;;;;;0.60;99.90;;;;;;6156784;23;19971;-89
2023/03/10 16:55:48;;;;;;;;;;;0.30;99.90;;;;;;6182626;23;19925;-87
2023/03/10 16:58:14;;;;;;;;;;;0.20;99.90;;;;;;6157885;23;19921;-91
2023/03/10 17:00:40;;;;;;;;;;;1.10;99.90;;;;;;6158461;23;19924;-88
2023/03/10 17:03:08;;;;;;;;;;;3.00;99.90;;;;;;6157916;23;19920;-88
2023/03/10 17:05:38;;;;;;;;;;;1.50;99.90;;;;;;6158211;23;19924;-88